Time;durP1;ratioP1;P1;durP2;ratioP2;P2;SDS_P1;SDS_P2;PMS_P1;PMS_P2;Temp;Humidity;BMP_temperature;BMP_pressure;BME280_temperature;BME280_humidity;BME280_pressure;Samples;Min_cycle;Max_cycle;Signal;HPM_P1;HPM_P2
2023/05/01 00:00:39;;;;;;;3.40;0.52;;;18.50;67.20;;;;;;4127952;28;20437;-63
2023/05/01 00:03:02;;;;;;;4.07;0.63;;;18.50;67.20;;;;;;4139227;28;20057;-59
2023/05/01 00:05:24;;;;;;;7.88;1.10;;;18.50;67.20;;;;;;4139426;28;20148;-64
2023/05/01 00:07:46;;;;;;;5.75;0.95;;;18.60;67.10;;;;;;4140625;28;20041;-66
2023/05/01 00:10:09;;;;;;;7.95;1.20;;;18.60;66.90;;;;;;4146315;28;20493;-62
2023/05/01 00:12:32;;;;;;;17.95;1.00;;;18.60;66.70;;;;;;4141792;28;20373;-61
2023/05/01 00:14:54;;;;;;;2.28;0.50;;;18.60;66.70;;;;;;4142595;28;20045;-61
2023/05/01 00:17:17;;;;;;;4.70;1.33;;;18.70;66.60;;;;;;4138837;28;20040;-61
2023/05/01 00:19:39;;;;;;;2.72;0.70;;;18.70;66.50;;;;;;4124732;28;20180;-60
2023/05/01 00:22:02;;;;;;;4.63;1.02;;;18.60;66.10;;;;;;4139444;28;20077;-63
2023/05/01 00:24:25;;;;;;;4.40;1.05;;;18.60;65.90;;;;;;4141874;28;20387;-61
2023/05/01 00:26:47;;;;;;;3.75;0.95;;;18.60;66.00;;;;;;4138241;28;20034;-60
2023/05/01 00:29:10;;;;;;;2.08;0.73;;;18.60;66.10;;;;;;4129731;28;20038;-60
2023/05/01 00:31:32;;;;;;;3.05;0.77;;;18.60;66.20;;;;;;4133383;28;20565;-59
2023/05/01 00:33:55;;;;;;;5.40;1.05;;;18.60;66.20;;;;;;4139855;28;20061;-62
2023/05/01 00:36:17;;;;;;;7.53;1.10;;;18.60;66.20;;;;;;4143812;28;20416;-58
2023/05/01 00:38:40;;;;;;;4.60;1.17;;;18.60;66.30;;;;;;4141360;28;20117;-61
2023/05/01 00:41:02;;;;;;;1.50;0.60;;;18.70;66.40;;;;;;4143599;28;20085;-61
2023/05/01 00:43:24;;;;;;;2.67;0.75;;;18.70;66.30;;;;;;4124480;28;20045;-60
2023/05/01 00:45:47;;;;;;;2.28;0.85;;;18.70;66.30;;;;;;4143297;28;20121;-61
2023/05/01 00:48:10;;;;;;;2.95;0.60;;;18.70;66.40;;;;;;4121431;28;20407;-63
2023/05/01 00:50:33;;;;;;;4.13;0.65;;;18.70;66.40;;;;;;4137472;28;20093;-64
2023/05/01 00:52:56;;;;;;;2.95;1.00;;;18.70;66.70;;;;;;4136071;28;20049;-66
2023/05/01 00:55:18;;;;;;;2.50;0.73;;;18.70;66.60;;;;;;4141675;28;20061;-60
2023/05/01 00:57:41;;;;;;;12.98;1.45;;;18.70;66.60;;;;;;4138017;28;20125;-60
2023/05/01 01:00:04;;;;;;;11.10;1.20;;;18.70;66.50;;;;;;4142496;28;20042;-61
2023/05/01 01:02:26;;;;;;;2.55;0.77;;;18.70;66.30;;;;;;4142182;28;20045;-62
2023/05/01 01:04:49;;;;;;;7.05;0.82;;;18.70;66.40;;;;;;4138975;28;20057;-63
2023/05/01 01:07:41;;;;;;;10.90;1.52;;;18.70;66.20;;;;;;4141787;28;20077;-70
2023/05/01 01:10:17;;;;;;;3.30;0.98;;;18.70;66.00;;;;;;4141071;28;20478;-66
2023/05/01 01:12:51;;;;;;;6.50;0.90;;;18.80;66.00;;;;;;4123634;28;20038;-69
2023/05/01 01:15:29;;;;;;;5.63;0.95;;;18.80;66.00;;;;;;4141274;28;20029;-64
2023/05/01 01:18:09;;;;;;;3.05;0.60;;;18.80;65.90;;;;;;4141732;28;20033;-59
2023/05/01 01:21:09;;;;;;;3.25;0.70;;;18.80;66.00;;;;;;4141560;28;20041;-60
2023/05/01 01:23:40;;;;;;;7.00;0.80;;;18.80;66.00;;;;;;4123223;28;20142;-63
2023/05/01 01:26:24;;;;;;;1.92;0.60;;;18.80;66.20;;;;;;4138195;28;20049;-58
2023/05/01 01:29:05;;;;;;;2.13;0.70;;;18.80;66.10;;;;;;4138125;28;20033;-58
2023/05/01 01:31:56;;;;;;;3.95;0.80;;;18.80;66.00;;;;;;4141008;28;20040;-58
2023/05/01 01:34:34;;;;;;;2.08;0.88;;;18.80;66.10;;;;;;4141032;28;20045;-60
2023/05/01 01:37:10;;;;;;;3.97;0.85;;;18.80;66.00;;;;;;4139778;28;20124;-61
2023/05/01 01:40:02;;;;;;;1.90;0.90;;;18.90;66.10;;;;;;4135025;28;20128;-61
2023/05/01 01:42:41;;;;;;;5.70;0.77;;;18.90;66.30;;;;;;4128687;28;20087;-58
2023/05/01 01:45:22;;;;;;;11.60;1.20;;;18.90;66.10;;;;;;4141046;28;20042;-59
2023/05/01 01:47:46;;;;;;;5.75;1.67;;;18.90;66.10;;;;;;4144145;28;20069;-64
2023/05/01 01:50:12;;;;;;;3.03;1.02;;;19.00;66.70;;;;;;4124654;28;20039;-67
2023/05/01 01:52:38;;;;;;;2.17;0.57;;;19.00;66.10;;;;;;4146227;28;20044;-64
2023/05/01 01:55:10;;;;;;;2.53;0.80;;;19.00;66.00;;;;;;4140243;28;20041;-65
2023/05/01 01:57:35;;;;;;;2.78;0.95;;;19.00;66.00;;;;;;4144766;28;20038;-63
2023/05/01 01:59:58;;;;;;;2.10;0.73;;;19.00;65.90;;;;;;4144040;28;20496;-60
2023/05/01 02:02:22;;;;;;;3.80;0.60;;;19.00;65.90;;;;;;4130071;28;20041;-62
2023/05/01 02:04:45;;;;;;;6.47;0.70;;;19.00;66.00;;;;;;4145733;28;20046;-58
2023/05/01 02:07:10;;;;;;;1.48;0.77;;;19.00;66.00;;;;;;4130628;28;20830;-60
2023/05/01 02:09:34;;;;;;;4.03;0.63;;;19.00;66.20;;;;;;4126079;28;20488;-61
2023/05/01 02:11:59;;;;;;;6.20;1.33;;;19.00;66.10;;;;;;4142547;28;20044;-55
2023/05/01 02:14:24;;;;;;;4.57;1.00;;;19.00;66.60;;;;;;4139365;28;20034;-53
2023/05/01 02:16:48;;;;;;;7.47;1.70;;;19.00;66.10;;;;;;4144845;28;20068;-56
2023/05/01 02:19:10;;;;;;;2.90;0.90;;;19.10;66.40;;;;;;4135098;28;20494;-60
2023/05/01 02:21:34;;;;;;;4.25;1.27;;;19.10;66.20;;;;;;4145704;28;20112;-56
2023/05/01 02:23:58;;;;;;;;;;;19.10;66.40;;;;;;4137736;28;20069;-58
2023/05/01 02:26:25;;;;;;;6.00;0.90;;;19.20;66.40;;;;;;4144812;28;20313;-58
2023/05/01 02:28:47;;;;;;;3.28;0.70;;;19.20;66.50;;;;;;4140259;28;20046;-58
2023/05/01 02:31:10;;;;;;;2.10;0.80;;;19.20;66.50;;;;;;4131149;28;20025;-59
2023/05/01 02:33:32;;;;;;;1.40;0.68;;;19.30;66.50;;;;;;4137400;28;20048;-59
2023/05/01 02:35:55;;;;;;;1.02;0.60;;;19.30;66.30;;;;;;4136802;28;20100;-58
2023/05/01 02:38:17;;;;;;;2.80;0.75;;;19.30;66.30;;;;;;4125702;28;20047;-57
2023/05/01 02:40:41;;;;;;;1.67;0.80;;;19.40;66.40;;;;;;4137727;28;20057;-56
2023/05/01 02:43:08;;;;;;;3.08;0.60;;;19.40;66.50;;;;;;4138702;28;20121;-57
2023/05/01 02:45:36;;;;;;;1.02;0.50;;;19.40;66.30;;;;;;4129431;28;20054;-59
2023/05/01 02:48:00;;;;;;;9.73;1.65;;;19.50;66.50;;;;;;4139524;28;20041;-56
2023/05/01 02:50:24;;;;;;;0.88;0.82;;;19.50;66.20;;;;;;4140394;28;20034;-55
2023/05/01 02:52:47;;;;;;;1.50;0.77;;;19.50;66.20;;;;;;4143186;28;20041;-54
2023/05/01 02:55:10;;;;;;;1.55;0.60;;;19.60;66.20;;;;;;4141374;28;20052;-57
2023/05/01 02:57:33;;;;;;;3.33;0.80;;;19.60;66.10;;;;;;4140338;28;20045;-52
2023/05/01 02:59:56;;;;;;;1.08;0.60;;;19.60;66.20;;;;;;4140139;28;20515;-55
2023/05/01 03:02:18;;;;;;;1.85;0.70;;;19.70;66.40;;;;;;4140841;28;20030;-54
2023/05/01 03:04:42;;;;;;;0.82;0.60;;;19.70;66.30;;;;;;4144068;28;20073;-57
2023/05/01 03:07:04;;;;;;;3.15;0.65;;;19.70;66.30;;;;;;4135619;28;20065;-56
2023/05/01 03:09:27;;;;;;;2.38;0.70;;;19.70;66.20;;;;;;4137453;28;20042;-51
2023/05/01 03:11:49;;;;;;;2.35;0.70;;;19.80;66.20;;;;;;4139973;28;20129;-55
2023/05/01 03:14:12;;;;;;;2.17;0.73;;;19.80;65.60;;;;;;4134991;28;20441;-57
2023/05/01 03:16:34;;;;;;;2.83;0.77;;;19.80;65.70;;;;;;4137531;28;20038;-61
2023/05/01 03:18:57;;;;;;;5.70;0.80;;;19.80;65.90;;;;;;4130165;28;20045;-59
2023/05/01 03:21:19;;;;;;;2.75;0.70;;;19.90;65.80;;;;;;4136437;28;20034;-61
2023/05/01 03:23:42;;;;;;;3.63;0.75;;;20.00;65.70;;;;;;4138933;28;20033;-60
2023/05/01 03:26:04;;;;;;;3.42;0.88;;;20.00;65.40;;;;;;4150776;28;20048;-58
2023/05/01 03:28:27;;;;;;;0.88;0.63;;;20.10;65.40;;;;;;4144395;28;20107;-60
2023/05/01 03:30:53;;;;;;;0.40;0.40;;;20.20;65.30;;;;;;4142482;28;20433;-59
2023/05/01 03:33:15;;;;;;;1.00;0.63;;;20.20;65.20;;;;;;4144150;28;20061;-61
2023/05/01 03:35:39;;;;;;;1.52;0.82;;;20.20;65.10;;;;;;4145318;28;20076;-60
2023/05/01 03:38:02;;;;;;;3.35;0.45;;;20.20;65.10;;;;;;4147520;28;20585;-61
2023/05/01 03:40:24;;;;;;;1.55;0.50;;;20.30;65.00;;;;;;4142935;28;20046;-59
2023/05/01 03:42:46;;;;;;;1.17;0.40;;;20.30;64.90;;;;;;4143458;28;20038;-61
2023/05/01 03:45:09;;;;;;;1.27;0.40;;;20.40;64.80;;;;;;4144903;28;20045;-62
2023/05/01 03:47:32;;;;;;;3.10;1.38;;;20.50;64.90;;;;;;4137596;28;20077;-61
2023/05/01 03:49:54;;;;;;;1.20;0.50;;;20.50;64.70;;;;;;4143053;28;20084;-59
2023/05/01 03:52:17;;;;;;;1.20;0.40;;;20.60;64.60;;;;;;4149199;28;20531;-61
2023/05/01 03:54:39;;;;;;;0.47;0.30;;;20.60;64.40;;;;;;4146798;28;20484;-63
2023/05/01 03:57:02;;;;;;;0.68;0.40;;;20.70;64.20;;;;;;4142552;28;20033;-64
2023/05/01 03:59:25;;;;;;;4.72;1.10;;;20.80;64.00;;;;;;4142480;28;20700;-59
2023/05/01 04:01:47;;;;;;;0.75;0.40;;;20.80;63.50;;;;;;4140670;28;20498;-61
2023/05/01 04:04:10;;;;;;;0.82;0.30;;;20.90;63.50;;;;;;4127586;28;20050;-59
2023/05/01 04:06:32;;;;;;;1.52;0.50;;;21.00;63.40;;;;;;4137532;28;20073;-60
2023/05/01 04:08:54;;;;;;;1.40;0.45;;;21.00;63.40;;;;;;4142648;28;20437;-61
2023/05/01 04:11:17;;;;;;;0.40;0.40;;;21.10;63.30;;;;;;4146420;28;20365;-61
2023/05/01 04:13:39;;;;;;;2.13;0.57;;;21.20;63.10;;;;;;4142949;28;20038;-60
2023/05/01 04:16:02;;;;;;;1.08;0.35;;;21.30;63.00;;;;;;4147738;28;20046;-61
2023/05/01 04:18:25;;;;;;;3.90;0.50;;;21.40;62.80;;;;;;4141312;28;20549;-60
2023/05/01 04:20:47;;;;;;;0.40;0.40;;;21.50;62.60;;;;;;4144245;28;20048;-62
2023/05/01 04:23:09;;;;;;;0.63;0.30;;;21.60;62.50;;;;;;4141942;28;20105;-61
2023/05/01 04:25:32;;;;;;;0.40;0.30;;;21.60;62.20;;;;;;4140811;28;20120;-59
2023/05/01 04:27:56;;;;;;;1.52;0.40;;;21.70;62.10;;;;;;4142011;28;20112;-62
2023/05/01 04:30:18;;;;;;;0.68;0.50;;;21.80;61.80;;;;;;4147961;28;20095;-59
2023/05/01 04:32:41;;;;;;;0.20;0.20;;;21.90;61.70;;;;;;4141237;28;20041;-60
2023/05/01 04:35:03;;;;;;;0.30;0.30;;;21.90;61.70;;;;;;4140855;28;20129;-56
2023/05/01 04:37:26;;;;;;;0.43;0.30;;;21.90;61.80;;;;;;4141904;28;20069;-58
2023/05/01 04:39:49;;;;;;;0.40;0.30;;;22.00;61.80;;;;;;4141267;28;20057;-58
2023/05/01 04:42:12;;;;;;;2.50;0.40;;;22.00;61.70;;;;;;4127705;28;20120;-57
2023/05/01 04:44:36;;;;;;;1.45;0.50;;;22.10;61.50;;;;;;4142899;28;20065;-58
2023/05/01 04:46:58;;;;;;;1.73;0.40;;;22.20;61.30;;;;;;4139426;28;20331;-62
2023/05/01 04:49:22;;;;;;;1.60;0.52;;;22.30;60.90;;;;;;4142400;28;20095;-61
2023/05/01 04:51:44;;;;;;;1.77;0.40;;;22.40;60.10;;;;;;4136861;28;20325;-60
2023/05/01 04:54:07;;;;;;;0.80;0.43;;;22.50;60.10;;;;;;4141121;28;20137;-61
2023/05/01 04:56:29;;;;;;;0.85;0.50;;;22.60;60.00;;;;;;4142884;28;20461;-60
2023/05/01 04:58:52;;;;;;;0.40;0.30;;;22.70;59.70;;;;;;4142309;28;20054;-63
2023/05/01 05:01:14;;;;;;;0.73;0.30;;;22.70;59.80;;;;;;4141015;28;20120;-63
2023/05/01 05:03:36;;;;;;;0.45;0.43;;;22.70;59.80;;;;;;4140169;28;20541;-61
2023/05/01 05:05:59;;;;;;;0.80;0.30;;;22.60;60.00;;;;;;4141537;28;20113;-62
2023/05/01 05:08:21;;;;;;;0.57;0.28;;;22.60;60.00;;;;;;4142958;28;20041;-62
2023/05/01 05:10:44;;;;;;;0.75;0.30;;;22.60;60.10;;;;;;4141055;28;20502;-59
2023/05/01 05:13:06;;;;;;;0.30;0.30;;;22.50;60.30;;;;;;4140393;28;20041;-59
2023/05/01 05:15:28;;;;;;;0.47;0.25;;;22.40;60.40;;;;;;4125822;28;20129;-60
2023/05/01 05:17:51;;;;;;;0.35;0.30;;;22.40;60.50;;;;;;4143198;28;20038;-59
2023/05/01 05:20:14;;;;;;;0.35;0.30;;;22.40;60.60;;;;;;4141169;28;20590;-60
2023/05/01 05:22:37;;;;;;;0.30;0.30;;;22.30;60.70;;;;;;4136899;28;20500;-59
2023/05/01 05:25:02;;;;;;;1.25;0.30;;;22.30;60.80;;;;;;4141735;28;20087;-61
2023/05/01 05:27:25;;;;;;;0.82;0.38;;;22.30;60.70;;;;;;4138497;28;20144;-60
2023/05/01 05:29:47;;;;;;;0.40;0.30;;;22.30;60.80;;;;;;4131982;28;20522;-61
2023/05/01 05:32:10;;;;;;;0.45;0.30;;;22.20;60.90;;;;;;4141416;28;20513;-60
2023/05/01 05:34:33;;;;;;;1.80;0.30;;;22.20;61.20;;;;;;4137505;28;20124;-59
2023/05/01 05:36:55;;;;;;;0.75;0.43;;;22.20;61.20;;;;;;4139708;28;20094;-60
2023/05/01 05:39:19;;;;;;;1.13;0.45;;;22.20;61.20;;;;;;4139466;28;20076;-63
2023/05/01 05:41:41;;;;;;;1.40;0.50;;;22.20;61.20;;;;;;4139720;28;20430;-60
2023/05/01 05:44:04;;;;;;;1.10;0.50;;;22.20;61.30;;;;;;4144035;28;20050;-60
2023/05/01 05:46:26;;;;;;;1.00;0.63;;;22.20;61.30;;;;;;4139847;28;20033;-60
2023/05/01 05:48:49;;;;;;;0.88;0.52;;;22.20;61.20;;;;;;4142178;28;20038;-57
2023/05/01 05:51:11;;;;;;;3.08;0.50;;;22.20;61.20;;;;;;4142058;28;20121;-60
2023/05/01 05:53:34;;;;;;;1.15;0.50;;;22.20;61.20;;;;;;4137004;28;20054;-58
2023/05/01 05:55:56;;;;;;;3.70;0.60;;;22.20;61.20;;;;;;4143178;28;20041;-57
2023/05/01 05:58:19;;;;;;;1.35;0.28;;;22.20;61.20;;;;;;4134042;28;20136;-57
2023/05/01 06:00:41;;;;;;;1.90;0.40;;;22.20;61.20;;;;;;4143865;28;20042;-57
2023/05/01 06:03:04;;;;;;;3.58;0.50;;;22.20;61.20;;;;;;4130394;28;20815;-58
2023/05/01 06:05:26;;;;;;;1.08;0.30;;;22.20;61.20;;;;;;4142193;28;20224;-60
2023/05/01 06:07:50;;;;;;;0.88;0.30;;;22.20;61.20;;;;;;4131230;28;20405;-60
2023/05/01 06:10:12;;;;;;;2.50;0.73;;;22.20;61.20;;;;;;4140641;28;20034;-61
2023/05/01 06:12:34;;;;;;;0.75;0.40;;;22.20;61.30;;;;;;4142173;28;20034;-65
2023/05/01 06:14:57;;;;;;;0.52;0.30;;;22.20;61.30;;;;;;4142586;28;20037;-65
2023/05/01 06:17:20;;;;;;;1.17;0.50;;;22.20;61.20;;;;;;4138469;28;20456;-66
2023/05/01 06:19:42;;;;;;;0.88;0.43;;;22.20;61.90;;;;;;4136998;28;20526;-63
2023/05/01 06:22:06;;;;;;;2.72;0.57;;;22.20;61.20;;;;;;4138839;28;20502;-61
2023/05/01 06:24:28;;;;;;;0.98;0.47;;;22.20;61.30;;;;;;4142100;28;20045;-64
2023/05/01 06:26:51;;;;;;;0.93;0.40;;;22.20;61.20;;;;;;4141064;28;20176;-62
2023/05/01 06:29:13;;;;;;;1.50;0.50;;;22.20;61.10;;;;;;4142933;28;20509;-60
2023/05/01 06:31:36;;;;;;;3.92;0.70;;;22.20;61.10;;;;;;4141931;28;20046;-62
2023/05/01 06:33:58;;;;;;;1.27;0.57;;;22.20;61.20;;;;;;4140522;28;20045;-62
2023/05/01 06:36:21;;;;;;;1.98;0.63;;;22.30;61.20;;;;;;4143278;28;20600;-60
2023/05/01 06:38:47;;;;;;;0.75;0.60;;;22.30;61.20;;;;;;4140105;28;20137;-60
2023/05/01 06:41:09;;;;;;;1.13;0.50;;;22.50;61.10;;;;;;4142410;28;20117;-59
2023/05/01 06:43:32;;;;;;;1.60;0.90;;;22.80;59.80;;;;;;4147105;28;20038;-59
2023/05/01 06:45:54;;;;;;;1.30;0.70;;;23.20;59.20;;;;;;4145212;28;20038;-61
2023/05/01 06:48:17;;;;;;;2.38;0.90;;;23.80;57.50;;;;;;4144530;28;20077;-62
2023/05/01 06:50:39;;;;;;;3.17;0.85;;;24.30;55.80;;;;;;4144750;28;20041;-48
2023/05/01 06:53:01;;;;;;;2.70;1.30;;;25.00;53.50;;;;;;4144882;28;20040;-50
2023/05/01 06:55:24;;;;;;;4.53;1.30;;;25.40;50.40;;;;;;4137329;28;20035;-52
2023/05/01 06:57:46;;;;;;;1.83;0.93;;;25.00;50.20;;;;;;4140715;28;20045;-52
2023/05/01 07:00:10;;;;;;;4.32;1.30;;;24.30;51.30;;;;;;4140469;28;20085;-58
2023/05/01 07:02:32;;;;;;;2.50;0.77;;;23.80;52.70;;;;;;4144272;28;20037;-55
2023/05/01 07:04:55;;;;;;;3.03;0.90;;;23.40;53.80;;;;;;4135751;28;20287;-57
2023/05/01 07:07:17;;;;;;;4.05;1.05;;;23.10;55.00;;;;;;4135739;28;20395;-58
2023/05/01 07:09:40;;;;;;;1.27;0.50;;;22.80;55.90;;;;;;4134700;28;20126;-57
2023/05/01 07:12:03;;;;;;;2.00;0.60;;;22.70;56.70;;;;;;4144085;28;20084;-59
2023/05/01 07:14:25;;;;;;;1.25;0.80;;;22.50;57.30;;;;;;4137778;28;20497;-58
2023/05/01 07:16:47;;;;;;;3.33;0.77;;;22.50;57.80;;;;;;4143217;28;20056;-59
2023/05/01 07:19:12;;;;;;;3.88;0.90;;;22.40;58.20;;;;;;4140754;28;20084;-58
2023/05/01 07:21:34;;;;;;;1.40;0.43;;;22.40;58.50;;;;;;4144800;28;20065;-59
2023/05/01 07:23:57;;;;;;;2.20;1.00;;;22.30;58.60;;;;;;4138898;28;20042;-61
2023/05/01 07:26:20;;;;;;;0.98;0.57;;;22.30;59.00;;;;;;4136936;28;20402;-62
2023/05/01 07:28:42;;;;;;;2.60;0.52;;;22.20;59.20;;;;;;4128807;28;20030;-61
2023/05/01 07:31:05;;;;;;;4.20;0.63;;;22.20;59.50;;;;;;4143547;28;20038;-62
2023/05/01 07:33:27;;;;;;;1.17;0.60;;;22.20;60.20;;;;;;4143321;28;20489;-60
2023/05/01 07:35:49;;;;;;;2.60;0.60;;;22.20;59.60;;;;;;4143514;28;20038;-62
2023/05/01 07:38:12;;;;;;;1.27;0.63;;;22.20;59.70;;;;;;4134985;28;20038;-61
2023/05/01 07:40:35;;;;;;;1.88;0.60;;;22.20;59.70;;;;;;4142484;28;20516;-60
2023/05/01 07:42:58;;;;;;;2.13;0.80;;;22.20;59.70;;;;;;4140337;28;20426;-63
2023/05/01 07:45:20;;;;;;;4.07;1.00;;;22.20;59.70;;;;;;4144106;28;20063;-60
2023/05/01 07:47:43;;;;;;;1.65;1.00;;;22.30;59.70;;;;;;4122617;28;20158;-63
2023/05/01 07:50:09;;;;;;;1.58;0.70;;;22.20;59.70;;;;;;4145591;28;20096;-61
2023/05/01 07:52:31;;;;;;;2.83;0.80;;;22.20;60.00;;;;;;4134210;28;20076;-62
2023/05/01 07:54:54;;;;;;;0.65;0.40;;;22.20;60.00;;;;;;4127740;28;20042;-59
2023/05/01 07:57:16;;;;;;;3.38;0.70;;;22.20;59.90;;;;;;4142527;28;20034;-58
2023/05/01 07:59:39;;;;;;;5.90;0.98;;;22.20;60.00;;;;;;4140300;28;20056;-59
2023/05/01 08:02:04;;;;;;;3.78;0.68;;;22.20;60.10;;;;;;4143765;28;20049;-58
2023/05/01 08:04:28;;;;;;;5.65;0.73;;;22.20;60.20;;;;;;4139345;28;20037;-53
2023/05/01 08:06:51;;;;;;;1.10;0.70;;;22.20;60.20;;;;;;4142765;28;20037;-57
2023/05/01 08:09:13;;;;;;;3.25;0.60;;;22.20;60.30;;;;;;4140419;28;20068;-58
2023/05/01 08:11:35;;;;;;;2.85;0.50;;;22.20;60.30;;;;;;4144240;28;20044;-59
2023/05/01 08:13:58;;;;;;;1.52;0.65;;;22.20;60.30;;;;;;4141761;28;20144;-58
2023/05/01 08:16:20;;;;;;;0.95;0.40;;;22.10;60.30;;;;;;4141073;28;20057;-58
2023/05/01 08:18:43;;;;;;;2.22;0.70;;;22.20;60.40;;;;;;4142465;28;21054;-58
2023/05/01 08:21:05;;;;;;;1.05;0.55;;;22.20;60.30;;;;;;4143146;28;20045;-58
2023/05/01 08:23:28;;;;;;;1.55;0.60;;;22.20;60.20;;;;;;4143026;28;20046;-59
2023/05/01 08:25:51;;;;;;;1.73;0.68;;;22.20;60.20;;;;;;4141163;28;20033;-57
2023/05/01 08:28:19;;;;;;;0.85;0.50;;;22.20;60.20;;;;;;4143589;28;20057;-58
2023/05/01 08:30:42;;;;;;;1.13;0.70;;;22.10;60.20;;;;;;4140717;28;20501;-61
2023/05/01 08:33:05;;;;;;;1.33;0.67;;;22.10;60.20;;;;;;4121813;28;20073;-60
2023/05/01 08:35:27;;;;;;;1.17;0.60;;;22.10;60.30;;;;;;4133506;28;20287;-59
2023/05/01 08:37:50;;;;;;;2.47;0.90;;;22.10;60.40;;;;;;4145291;28;20482;-60
2023/05/01 08:40:14;;;;;;;1.02;0.60;;;22.10;60.20;;;;;;4143967;28;20128;-59
2023/05/01 08:42:38;;;;;;;;;;;22.10;60.20;;;;;;4134532;28;20048;-58
2023/05/01 08:45:03;;;;;;;1.70;0.47;;;22.20;60.30;;;;;;4144913;28;19914;-61
2023/05/01 08:47:28;;;;;;;1.90;0.70;;;22.20;60.20;;;;;;4129398;28;20027;-59
2023/05/01 08:49:51;;;;;;;0.57;0.40;;;22.10;60.10;;;;;;4145182;28;20409;-59
2023/05/01 08:52:14;;;;;;;3.63;0.80;;;22.10;60.20;;;;;;4143006;28;20528;-62
2023/05/01 08:54:47;;;;;;;1.02;0.40;;;22.10;60.30;;;;;;4130377;28;20045;-58
2023/05/01 08:57:11;;;;;;;0.93;0.65;;;22.10;60.30;;;;;;4142309;28;20088;-59
2023/05/01 08:59:37;;;;;;;1.20;0.68;;;22.10;60.20;;;;;;4135727;28;20048;-63
2023/05/01 09:02:04;;;;;;;2.20;0.55;;;22.10;60.00;;;;;;4143529;28;20037;-58
2023/05/01 09:04:32;;;;;;;0.70;0.50;;;22.10;60.10;;;;;;4144264;28;20048;-58
2023/05/01 09:06:55;;;;;;;0.55;0.45;;;22.10;60.20;;;;;;4141150;28;20034;-59
2023/05/01 09:09:18;;;;;;;0.65;0.47;;;22.10;60.10;;;;;;4142390;28;20070;-59
2023/05/01 09:11:42;;;;;;;1.00;0.40;;;22.10;60.10;;;;;;4143058;28;20044;-62
2023/05/01 09:14:07;;;;;;;2.60;0.68;;;22.10;60.10;;;;;;4143691;28;20093;-60
2023/05/01 09:16:29;;;;;;;0.45;0.30;;;22.10;60.10;;;;;;4142137;28;20124;-57
2023/05/01 09:18:52;;;;;;;1.17;0.60;;;22.10;60.20;;;;;;4143662;28;20187;-59
2023/05/01 09:21:15;;;;;;;0.38;0.30;;;22.10;60.00;;;;;;4142072;28;20577;-60
2023/05/01 09:23:37;;;;;;;0.50;0.40;;;22.10;60.00;;;;;;4138964;28;20033;-60
2023/05/01 09:26:03;;;;;;;0.90;0.40;;;22.00;59.90;;;;;;4138554;28;20056;-53
2023/05/01 09:28:40;;;;;;;10.45;1.10;;;22.00;59.80;;;;;;4140859;28;20337;-60
2023/05/01 09:31:20;;;;;;;2.47;0.90;;;22.00;59.30;;;;;;4141539;28;20030;-53
2023/05/01 09:33:55;;;;;;;1.13;0.85;;;22.00;58.50;;;;;;4128731;28;20133;-54
2023/05/01 09:36:18;;;;;;;1.60;0.70;;;21.90;57.80;;;;;;4134227;28;20367;-56
2023/05/01 09:38:43;;;;;;;1.38;0.90;;;21.90;57.60;;;;;;4133511;28;20054;-57
2023/05/01 09:41:06;;;;;;;1.10;0.60;;;21.80;57.60;;;;;;4137616;28;20089;-53
2023/05/01 09:43:30;;;;;;;1.00;0.55;;;21.80;57.60;;;;;;4143420;28;20076;-54
2023/05/01 09:46:11;;;;;;;2.92;0.55;;;21.80;57.70;;;;;;4134837;28;20463;-54
2023/05/01 09:48:34;;;;;;;0.55;0.55;;;21.70;57.70;;;;;;4140449;28;20044;-50
2023/05/01 09:50:57;;;;;;;1.27;0.80;;;21.80;58.10;;;;;;4143547;28;20087;-53
2023/05/01 09:53:32;;;;;;;0.52;0.52;;;21.70;58.50;;;;;;4142607;28;20505;-58
2023/05/01 09:56:01;;;;;;;4.68;1.27;;;21.70;58.10;;;;;;4143027;28;20578;-59
2023/05/01 09:58:27;;;;;;;2.63;1.20;;;21.60;57.10;;;;;;4135102;28;20037;-59
2023/05/01 10:00:50;;;;;;;2.60;1.10;;;21.60;57.40;;;;;;4131605;28;20046;-58
2023/05/01 10:03:13;;;;;;;1.13;0.70;;;21.60;58.20;;;;;;4145145;28;20502;-54
2023/05/01 10:05:45;;;;;;;1.88;0.68;;;21.70;58.70;;;;;;4145783;28;20042;-62
2023/05/01 10:08:13;;;;;;;3.30;1.08;;;21.70;59.00;;;;;;4144337;28;20465;-59
2023/05/01 10:10:36;;;;;;;1.45;0.68;;;21.70;59.00;;;;;;4145203;28;20119;-60
2023/05/01 10:13:16;;;;;;;1.40;1.00;;;21.70;59.10;;;;;;4144597;28;20041;-63
2023/05/01 10:15:38;;;;;;;3.90;0.80;;;21.70;59.00;;;;;;4142629;28;20210;-57
2023/05/01 10:18:01;;;;;;;1.52;0.57;;;21.70;59.10;;;;;;4144349;28;20490;-58
2023/05/01 10:20:23;;;;;;;3.40;0.95;;;21.70;59.00;;;;;;4141152;28;20045;-59
2023/05/01 10:22:47;;;;;;;1.63;0.70;;;21.80;59.00;;;;;;4145910;28;20034;-61
2023/05/01 10:25:11;;;;;;;0.73;0.63;;;21.80;58.80;;;;;;4143664;28;20445;-60
2023/05/01 10:27:35;;;;;;;2.10;0.90;;;21.80;58.90;;;;;;4141857;28;20379;-56
2023/05/01 10:30:06;;;;;;;1.75;0.75;;;21.80;58.90;;;;;;4129351;28;20125;-49
2023/05/01 10:32:29;;;;;;;1.60;0.90;;;21.80;58.90;;;;;;4144624;28;20037;-47
2023/05/01 10:35:03;;;;;;;1.25;0.98;;;21.70;57.00;;;;;;4144659;28;20095;-46
2023/05/01 10:37:48;;;;;;;0.88;0.82;;;21.70;56.30;;;;;;4144952;28;20394;-54
2023/05/01 10:40:48;;;;;;;2.53;0.88;;;21.60;56.50;;;;;;4145022;28;20176;-48
2023/05/01 10:43:20;;;;;;;1.92;1.00;;;21.60;56.40;;;;;;4137441;28;20152;-47
2023/05/01 10:45:46;;;;;;;1.42;0.98;;;21.60;56.70;;;;;;4138777;28;20521;-46
2023/05/01 10:48:09;;;;;;;0.70;0.70;;;21.60;57.10;;;;;;4142837;28;20088;-48
2023/05/01 10:50:31;;;;;;;2.38;0.80;;;21.60;57.40;;;;;;4139771;28;20046;-47
2023/05/01 10:53:13;;;;;;;0.65;0.60;;;21.60;57.70;;;;;;4136283;28;20031;-51
2023/05/01 10:55:37;;;;;;;4.10;1.23;;;21.60;57.90;;;;;;4134202;28;20050;-53
2023/05/01 10:57:59;;;;;;;;;;;21.60;58.00;;;;;;4135564;28;20042;-47
2023/05/01 11:00:22;;;;;;;0.73;0.60;;;21.60;58.10;;;;;;4136259;28;19921;-46
2023/05/01 11:02:44;;;;;;;1.08;0.55;;;21.60;58.10;;;;;;4129711;28;20933;-44
2023/05/01 11:05:07;;;;;;;0.60;0.52;;;21.60;58.30;;;;;;4132439;28;20822;-47
2023/05/01 11:07:30;;;;;;;0.85;0.52;;;21.60;58.30;;;;;;4132734;28;20056;-50
2023/05/01 11:09:54;;;;;;;3.80;0.82;;;21.60;58.40;;;;;;4133032;28;20164;-50
2023/05/01 11:12:41;;;;;;;0.98;0.50;;;21.60;58.50;;;;;;4135301;28;20405;-49
2023/05/01 11:15:06;;;;;;;0.65;0.50;;;21.60;58.50;;;;;;4133815;28;20036;-48
2023/05/01 11:17:41;;;;;;;0.77;0.52;;;21.60;58.40;;;;;;4132348;28;20037;-58
2023/05/01 11:20:04;;;;;;;0.50;0.50;;;21.60;58.40;;;;;;4135592;28;20057;-52
2023/05/01 11:22:27;;;;;;;2.35;0.45;;;21.60;58.50;;;;;;4128975;28;20121;-53
2023/05/01 11:24:49;;;;;;;1.25;0.80;;;21.60;58.40;;;;;;4133890;28;20050;-47
2023/05/01 11:27:14;;;;;;;2.63;0.77;;;21.60;58.30;;;;;;4134882;28;20388;-56
2023/05/01 11:29:37;;;;;;;5.50;0.95;;;21.60;58.30;;;;;;4135414;28;20169;-47
2023/05/01 11:32:00;;;;;;;2.10;0.80;;;21.50;58.70;;;;;;4129654;28;20061;-47
2023/05/01 11:34:24;;;;;;;7.78;1.15;;;21.60;58.80;;;;;;4120273;28;20053;-54
2023/05/01 11:36:53;;;;;;;11.70;1.20;;;21.60;59.50;;;;;;4135870;28;20852;-51
2023/05/01 11:39:16;;;;;;;6.85;1.00;;;21.60;58.70;;;;;;4132722;28;20050;-56
2023/05/01 11:41:39;;;;;;;5.88;0.90;;;21.50;58.70;;;;;;4119896;28;20039;-51
2023/05/01 11:44:01;;;;;;;3.70;1.00;;;21.50;58.70;;;;;;4134937;28;20478;-57
2023/05/01 11:46:28;;;;;;;3.53;0.90;;;21.50;58.60;;;;;;4138888;28;20398;-49
2023/05/01 11:48:50;;;;;;;5.32;1.10;;;21.50;58.60;;;;;;4140573;28;20156;-52
2023/05/01 11:51:14;;;;;;;9.35;1.23;;;21.40;58.90;;;;;;4138822;28;20034;-59
2023/05/01 11:53:36;;;;;;;3.10;0.82;;;21.40;59.00;;;;;;4138409;28;20046;-56
2023/05/01 11:55:59;;;;;;;1.92;0.80;;;21.40;59.00;;;;;;4124554;28;20035;-52
2023/05/01 11:58:32;;;;;;;2.50;1.00;;;21.40;58.90;;;;;;4138740;28;20038;-54
2023/05/01 12:00:54;;;;;;;6.13;1.42;;;21.40;58.40;;;;;;4143572;28;20050;-51
2023/05/01 12:03:17;;;;;;;10.65;2.03;;;21.30;58.00;;;;;;4142732;28;20040;-55
2023/05/01 12:05:44;;;;;;;8.18;1.83;;;21.30;58.40;;;;;;4142491;28;20410;-54
2023/05/01 12:08:22;;;;;;;15.23;1.80;;;21.30;58.40;;;;;;4140301;28;20104;-51
2023/05/01 12:10:46;;;;;;;10.73;1.40;;;21.20;58.40;;;;;;4143870;28;20042;-49
2023/05/01 12:13:11;;;;;;;8.20;1.20;;;21.20;58.60;;;;;;4138985;28;20042;-55
2023/05/01 12:15:39;;;;;;;4.35;1.08;;;21.20;58.70;;;;;;4143212;28;20038;-52
2023/05/01 12:18:03;;;;;;;4.45;0.85;;;21.20;58.80;;;;;;4139128;28;20041;-54
2023/05/01 12:20:57;;;;;;;11.43;1.30;;;21.20;59.00;;;;;;4139485;28;20085;-58
2023/05/01 12:23:36;;;;;;;6.07;1.00;;;21.20;59.20;;;;;;4103720;28;20550;-56
2023/05/01 12:25:59;;;;;;;26.27;2.58;;;21.10;59.10;;;;;;4141129;28;20616;-53
2023/05/01 12:28:21;;;;;;;38.33;5.00;;;21.10;59.40;;;;;;4145029;28;20095;-57
2023/05/01 12:30:46;;;;;;;40.50;5.00;;;21.10;59.70;;;;;;4140313;28;20040;-56
2023/05/01 12:33:16;;;;;;;50.63;4.40;;;21.10;59.80;;;;;;4125360;28;20049;-53
2023/05/01 12:35:40;;;;;;;32.65;4.03;;;21.10;59.80;;;;;;4143430;28;20095;-54